Time;durP1;ratioP1;P1;durP2;ratioP2;P2;SDS_P1;SDS_P2;PMS_P1;PMS_P2;Temp;Humidity;BMP_temperature;BMP_pressure;BME280_temperature;BME280_humidity;BME280_pressure;Samples;Min_cycle;Max_cycle;Signal;HPM_P1;HPM_P2
2022/01/19 00:00:41;;;;;;;58.60;23.70;;;4.80;99.90;;;;;;5060819;28;20088;-69
2022/01/19 00:03:06;;;;;;;49.28;20.80;;;4.80;99.90;;;;;;5067901;28;20076;-69
2022/01/19 00:05:32;;;;;;;50.15;20.27;;;4.70;99.90;;;;;;5080354;28;20058;-71
2022/01/19 00:07:58;;;;;;;50.60;21.88;;;4.70;99.90;;;;;;5080663;28;20140;-69
2022/01/19 00:10:27;;;;;;;61.88;22.20;;;4.80;99.90;;;;;;5098026;28;20048;-69
2022/01/19 00:12:58;;;;;;;61.30;23.98;;;4.80;99.90;;;;;;5080372;28;20079;-69
2022/01/19 00:15:26;;;;;;;54.30;22.98;;;4.70;99.90;;;;;;5080170;28;20109;-70
2022/01/19 00:17:54;;;;;;;60.47;22.77;;;4.70;99.90;;;;;;5098189;28;20127;-71
2022/01/19 00:20:21;;;;;;;73.07;25.58;;;4.70;99.90;;;;;;5080087;28;20098;-69
2022/01/19 00:22:47;;;;;;;71.95;25.42;;;4.70;99.90;;;;;;5080483;28;20364;-70
2022/01/19 00:25:12;;;;;;;72.07;26.13;;;4.70;99.90;;;;;;5098019;28;20048;-71
2022/01/19 00:27:38;;;;;;;82.20;26.88;;;4.70;99.90;;;;;;5098035;28;20056;-70
2022/01/19 00:30:05;;;;;;;70.93;25.38;;;4.70;99.90;;;;;;5097959;28;20364;-69
2022/01/19 00:32:30;;;;;;;68.45;26.77;;;4.70;99.90;;;;;;5076828;28;20062;-69
2022/01/19 00:34:56;;;;;;;66.35;25.75;;;4.80;99.90;;;;;;5077279;28;20044;-71
2022/01/19 00:37:22;;;;;;;66.20;26.30;;;4.80;99.90;;;;;;5043756;28;20113;-71
2022/01/19 00:39:48;;;;;;;71.05;27.15;;;4.80;99.90;;;;;;5078076;28;20044;-71
2022/01/19 00:42:13;;;;;;;70.03;26.42;;;4.80;99.90;;;;;;5076935;28;20508;-69
2022/01/19 00:44:39;;;;;;;62.20;24.73;;;4.80;99.90;;;;;;5059787;28;20059;-70
2022/01/19 00:47:05;;;;;;;69.03;25.88;;;4.80;99.90;;;;;;5077323;28;20043;-72
2022/01/19 00:49:31;;;;;;;61.70;24.77;;;4.80;99.90;;;;;;5077506;28;20060;-68
2022/01/19 00:51:56;;;;;;;68.05;25.73;;;4.80;99.90;;;;;;5059951;28;20507;-70
2022/01/19 00:54:22;;;;;;;66.15;26.83;;;4.90;99.90;;;;;;5059685;28;20059;-71
2022/01/19 00:56:47;;;;;;;65.30;27.23;;;4.90;99.90;;;;;;5076824;28;20074;-69
2022/01/19 00:59:13;;;;;;;73.22;26.50;;;4.90;99.90;;;;;;5077030;28;20044;-69
2022/01/19 01:01:39;;;;;;;66.07;25.55;;;4.90;99.90;;;;;;5076809;28;20044;-69
2022/01/19 01:04:04;;;;;;;63.67;25.85;;;4.90;99.90;;;;;;5074246;28;20055;-72
2022/01/19 01:06:30;;;;;;;64.65;26.88;;;4.90;99.90;;;;;;5079278;28;20447;-71
2022/01/19 01:08:56;;;;;;;66.75;25.13;;;4.90;99.90;;;;;;5079547;28;20074;-69
2022/01/19 01:11:28;;;;;;;67.90;27.63;;;4.90;99.90;;;;;;5079083;28;20139;-69
2022/01/19 01:16:37;;;;;;;70.70;26.30;;;4.90;99.90;;;;;;5078998;28;20106;-72
2022/01/19 01:19:05;;;;;;;75.35;26.55;;;4.90;99.90;;;;;;5079622;28;20051;-69
2022/01/19 01:21:32;;;;;;;64.47;27.88;;;4.90;99.90;;;;;;5078823;28;20059;-70
2022/01/19 01:23:58;;;;;;;69.28;26.13;;;4.90;99.90;;;;;;5096778;28;20044;-69
2022/01/19 01:26:23;;;;;;;72.95;28.08;;;4.90;99.90;;;;;;5079196;28;20142;-71
2022/01/19 01:28:49;;;;;;;72.78;26.77;;;4.90;99.90;;;;;;5096453;28;20040;-69
2022/01/19 01:31:15;;;;;;;76.25;26.92;;;4.90;99.90;;;;;;5078866;28;20048;-69
2022/01/19 01:33:41;;;;;;;79.93;28.67;;;4.90;99.90;;;;;;5081490;28;20448;-69
2022/01/19 01:36:07;;;;;;;71.50;27.90;;;4.90;99.90;;;;;;5059139;28;20055;-70
2022/01/19 01:38:33;;;;;;;76.80;26.83;;;4.90;99.90;;;;;;5024522;28;20416;-71
2022/01/19 01:40:59;;;;;;;80.28;28.00;;;4.90;99.90;;;;;;5076382;28;20041;-70
2022/01/19 01:43:25;;;;;;;77.03;28.17;;;4.80;99.90;;;;;;5058350;28;20110;-69
2022/01/19 01:45:55;;;;;;;81.18;28.05;;;4.80;99.90;;;;;;5058600;28;20040;-70
2022/01/19 01:48:23;;;;;;;80.20;27.42;;;4.80;99.90;;;;;;5058093;28;20067;-70
2022/01/19 01:53:36;;;;;;;77.63;28.73;;;5.00;99.90;;;;;;5057015;28;20057;-69
2022/01/19 01:56:09;;;;;;;70.78;27.15;;;4.80;99.90;;;;;;5041545;28;20082;-69
2022/01/19 01:58:38;;;;;;;74.80;27.00;;;4.80;99.90;;;;;;5058899;28;20075;-70
2022/01/19 02:01:05;;;;;;;72.15;26.90;;;4.80;99.90;;;;;;5058212;28;20044;-69
2022/01/19 02:03:37;;;;;;;75.63;27.23;;;4.80;99.90;;;;;;5060612;28;20037;-69
2022/01/19 02:06:20;;;;;;;71.90;27.10;;;4.80;99.90;;;;;;5058086;28;20045;-71
2022/01/19 02:09:01;;;;;;;81.72;27.80;;;4.80;99.90;;;;;;5075354;28;20053;-71
2022/01/19 02:15:48;;;;;;;79.35;27.95;;;4.80;99.90;;;;;;5058827;28;20097;-69
2022/01/19 02:22:53;;;;;;;83.03;27.00;;;4.90;99.90;;;;;;5057623;28;20099;-68
2022/01/19 02:25:26;;;;;;;77.05;26.63;;;4.80;99.90;;;;;;5075567;28;20079;-71
2022/01/19 02:41:42;;;;;;;85.60;29.65;;;4.80;99.90;;;;;;5053464;28;20067;-69
2022/01/19 02:44:10;;;;;;;77.20;30.25;;;4.90;99.90;;;;;;5095099;28;20127;-70
2022/01/19 02:49:16;;;;;;;68.50;28.50;;;4.90;99.90;;;;;;5089027;28;20052;-70
2022/01/19 02:51:43;;;;;;;76.18;27.38;;;4.80;99.90;;;;;;5057572;28;20045;-69
2022/01/19 02:54:13;;;;;;;86.88;29.00;;;4.80;99.90;;;;;;5057294;28;20051;-71
2022/01/19 02:56:42;;;;;;;73.68;27.45;;;4.80;99.90;;;;;;5057325;28;20049;-68
2022/01/19 02:59:19;;;;;;;82.95;29.17;;;4.80;99.90;;;;;;5058642;28;20080;-72
2022/01/19 03:09:43;;;;;;;90.35;29.70;;;4.80;99.90;;;;;;5074991;28;20235;-70
2022/01/19 03:12:09;;;;;;;90.32;32.08;;;4.80;99.90;;;;;;5057151;28;20052;-69
2022/01/19 03:14:35;;;;;;;90.70;30.02;;;4.80;99.90;;;;;;5057179;28;20055;-70
2022/01/19 03:17:01;;;;;;;92.57;29.73;;;4.80;99.90;;;;;;5075079;28;20040;-68
2022/01/19 03:19:28;;;;;;;89.93;32.42;;;4.80;99.90;;;;;;5074921;28;20063;-68
2022/01/19 03:21:54;;;;;;;83.25;29.70;;;4.80;99.90;;;;;;5057312;28;20047;-71
2022/01/19 03:24:20;;;;;;;85.38;32.25;;;4.80;99.90;;;;;;5057754;28;20470;-70
2022/01/19 03:26:45;;;;;;;81.25;32.17;;;4.70;99.90;;;;;;5074666;28;20045;-71
2022/01/19 03:29:11;;;;;;;80.03;30.75;;;4.80;99.90;;;;;;5048433;28;20048;-69
2022/01/19 03:31:36;;;;;;;73.05;29.63;;;4.80;99.90;;;;;;5064565;28;20480;-71
2022/01/19 03:34:03;;;;;;;73.88;32.05;;;4.80;99.90;;;;;;5056604;28;20044;-69
2022/01/19 03:36:29;;;;;;;82.45;32.63;;;4.80;99.90;;;;;;5077109;28;20055;-69
2022/01/19 03:38:55;;;;;;;81.38;32.13;;;4.70;99.90;;;;;;5076893;28;20048;-69
2022/01/19 03:41:20;;;;;;;83.78;32.30;;;4.70;99.90;;;;;;5077272;28;20113;-72
2022/01/19 03:43:46;;;;;;;78.50;32.25;;;4.70;99.90;;;;;;5076803;28;20487;-70
2022/01/19 03:46:15;;;;;;;85.78;32.10;;;4.70;99.90;;;;;;5077281;28;20062;-70
2022/01/19 03:48:54;;;;;;;75.68;30.23;;;4.60;99.90;;;;;;5076824;28;20060;-70
2022/01/19 03:51:20;;;;;;;76.57;31.35;;;4.70;99.90;;;;;;5095145;28;20344;-70
2022/01/19 03:53:46;;;;;;;67.65;29.77;;;4.60;99.90;;;;;;5076527;28;20044;-68
2022/01/19 03:56:11;;;;;;;75.22;30.38;;;4.60;99.90;;;;;;5094711;28;20044;-70
2022/01/19 03:58:38;;;;;;;71.65;31.38;;;4.60;99.90;;;;;;5076820;28;20052;-69
2022/01/19 04:01:05;;;;;;;62.22;29.55;;;4.60;99.90;;;;;;5094449;28;20052;-70
2022/01/19 04:04:02;;;;;;;69.70;32.25;;;4.60;99.90;;;;;;5076632;28;20071;-68
2022/01/19 04:06:29;;;;;;;81.03;32.75;;;4.60;99.90;;;;;;5195552;22;20068;-69
2022/01/19 04:08:55;;;;;;;80.82;31.17;;;4.60;99.90;;;;;;5034134;28;20359;-68
2022/01/19 04:11:22;;;;;;;72.03;32.38;;;4.50;99.90;;;;;;5019101;28;20107;-69
2022/01/19 04:16:29;;;;;;;73.15;33.13;;;4.50;99.90;;;;;;5017065;28;20457;-70
2022/01/19 04:19:07;;;;;;;73.25;34.25;;;4.50;99.90;;;;;;5020485;28;20045;-70
2022/01/19 04:21:32;;;;;;;83.68;34.17;;;4.50;99.90;;;;;;5038556;28;20057;-70
2022/01/19 04:23:59;;;;;;;81.88;33.60;;;4.50;99.90;;;;;;5019836;28;20049;-69
2022/01/19 04:26:25;;;;;;;87.28;34.40;;;4.50;99.90;;;;;;5037419;28;20049;-69
2022/01/19 04:28:50;;;;;;;81.90;33.25;;;4.50;99.90;;;;;;5020161;28;20061;-69
2022/01/19 04:31:16;;;;;;;84.47;34.00;;;4.50;99.90;;;;;;5037933;28;20052;-70
2022/01/19 04:33:44;;;;;;;72.70;33.60;;;4.50;99.90;;;;;;5037273;28;20538;-69
2022/01/19 04:39:24;;;;;;;82.80;34.17;;;4.50;99.90;;;;;;4970040;28;20051;-69
2022/01/19 04:44:51;;;;;;;82.28;34.25;;;4.50;99.90;;;;;;5057279;28;20084;-69
2022/01/19 04:47:52;;;;;;;80.40;34.22;;;4.50;99.90;;;;;;5057289;28;20075;-68
2022/01/19 05:01:43;;;;;;;78.38;35.63;;;4.50;99.90;;;;;;5039905;28;20045;-67
2022/01/19 05:04:27;;;;;;;75.80;34.08;;;4.50;99.90;;;;;;5039362;28;20052;-68
2022/01/19 05:07:06;;;;;;;83.05;35.60;;;4.50;99.90;;;;;;5051574;28;20468;-68
2022/01/19 05:14:44;;;;;;;75.50;35.50;;;4.50;99.90;;;;;;5019273;28;20514;-70
2022/01/19 05:17:10;;;;;;;74.20;33.38;;;4.50;99.90;;;;;;5019717;28;20103;-71
2022/01/19 05:19:36;;;;;;;72.82;32.60;;;4.40;99.90;;;;;;5036962;28;20033;-69
2022/01/19 05:22:03;;;;;;;83.65;33.55;;;4.50;99.90;;;;;;5018891;28;20073;-70
2022/01/19 05:24:29;;;;;;;70.28;32.90;;;4.40;99.90;;;;;;5040019;28;20046;-71
2022/01/19 05:26:54;;;;;;;78.47;34.03;;;4.40;99.90;;;;;;5027828;28;20079;-68
2022/01/19 05:29:20;;;;;;;72.50;33.92;;;4.40;99.90;;;;;;5019174;28;20080;-70
2022/01/19 05:31:46;;;;;;;72.30;32.95;;;4.40;99.90;;;;;;5036637;28;20051;-69
2022/01/19 05:34:11;;;;;;;78.15;34.38;;;4.40;99.90;;;;;;5018996;28;20061;-70
2022/01/19 05:36:37;;;;;;;75.93;34.20;;;4.40;99.90;;;;;;5036279;28;20093;-68
2022/01/19 05:39:05;;;;;;;73.03;34.13;;;4.40;99.90;;;;;;5036179;28;20033;-67
2022/01/19 05:41:34;;;;;;;76.68;32.50;;;4.40;99.90;;;;;;5018692;28;20095;-68
2022/01/19 05:43:59;;;;;;;68.43;33.88;;;4.40;99.90;;;;;;5035969;28;20063;-69
2022/01/19 05:46:25;;;;;;;70.85;33.28;;;4.40;99.90;;;;;;5035991;28;20136;-68
2022/01/19 05:48:51;;;;;;;75.40;34.75;;;4.40;99.90;;;;;;5019072;28;20141;-70
2022/01/19 05:51:16;;;;;;;72.32;34.03;;;4.40;99.90;;;;;;5018700;28;20136;-69
2022/01/19 05:53:42;;;;;;;72.53;33.17;;;4.40;99.90;;;;;;5035775;28;20049;-70
2022/01/19 05:56:08;;;;;;;68.68;33.80;;;4.40;99.90;;;;;;5018555;28;20065;-67
2022/01/19 05:58:34;;;;;;;70.40;32.72;;;4.40;99.90;;;;;;5026179;28;20083;-70
2022/01/19 06:00:59;;;;;;;69.82;33.92;;;4.40;99.90;;;;;;5018348;28;20339;-67
2022/01/19 06:03:25;;;;;;;67.80;32.95;;;4.40;99.90;;;;;;5035934;28;20477;-71
2022/01/19 06:05:51;;;;;;;69.55;34.05;;;4.40;99.90;;;;;;5018596;28;20054;-70
2022/01/19 06:08:28;;;;;;;65.55;33.35;;;4.40;99.90;;;;;;5017847;28;20053;-69
2022/01/19 06:10:55;;;;;;;66.13;34.33;;;4.40;99.90;;;;;;5017891;28;20053;-70
2022/01/19 06:13:23;;;;;;;67.32;34.97;;;4.40;99.90;;;;;;5036192;28;20434;-68
2022/01/19 06:15:49;;;;;;;71.05;34.05;;;4.30;99.90;;;;;;5001788;28;20128;-72
2022/01/19 06:18:17;;;;;;;72.80;34.13;;;4.50;99.90;;;;;;5018200;28;20095;-71
2022/01/19 06:20:43;;;;;;;71.07;35.15;;;4.40;99.90;;;;;;5035367;28;20046;-70
2022/01/19 06:23:08;;;;;;;72.03;34.30;;;4.40;99.90;;;;;;5048327;28;20049;-68
2022/01/19 06:25:34;;;;;;;66.13;33.60;;;4.40;99.90;;;;;;5055787;28;20045;-69
2022/01/19 06:28:00;;;;;;;68.68;34.60;;;4.40;99.90;;;;;;5038014;28;20052;-72
2022/01/19 06:30:26;;;;;;;72.25;34.67;;;4.40;99.90;;;;;;5036445;28;20103;-71
2022/01/19 06:32:52;;;;;;;78.05;35.60;;;4.40;99.90;;;;;;5034986;28;20045;-71
2022/01/19 06:35:18;;;;;;;75.03;33.83;;;4.40;99.90;;;;;;5044277;28;20045;-68
2022/01/19 06:37:44;;;;;;;69.25;34.40;;;4.40;99.90;;;;;;5032352;28;20881;-70
2022/01/19 06:40:12;;;;;;;68.82;35.60;;;4.40;99.90;;;;;;5017439;28;20125;-72
2022/01/19 06:42:37;;;;;;;73.32;33.88;;;4.40;99.90;;;;;;5026308;28;20052;-70
2022/01/19 06:45:05;;;;;;;72.22;33.28;;;4.40;99.90;;;;;;5052977;28;20045;-71
2022/01/19 06:47:31;;;;;;;68.15;33.70;;;4.50;99.90;;;;;;5033768;28;20041;-71
2022/01/19 06:49:57;;;;;;;71.63;33.80;;;4.50;99.90;;;;;;5036341;28;20041;-69
2022/01/19 06:52:23;;;;;;;70.18;35.38;;;4.50;99.90;;;;;;5044951;28;20365;-70
2022/01/19 06:54:48;;;;;;;71.30;36.17;;;4.50;99.90;;;;;;5034799;28;20111;-70
2022/01/19 06:57:14;;;;;;;73.18;35.30;;;4.50;99.90;;;;;;5017613;28;20053;-71
2022/01/19 06:59:40;;;;;;;67.13;34.63;;;4.60;99.90;;;;;;5020581;28;20049;-68
2022/01/19 07:02:06;;;;;;;74.15;35.53;;;4.50;99.90;;;;;;5050288;28;20449;-69
2022/01/19 07:04:31;;;;;;;69.55;34.05;;;4.50;99.90;;;;;;5051778;28;20072;-69
2022/01/19 07:06:57;;;;;;;79.10;35.85;;;4.60;99.90;;;;;;5054478;28;20057;-69
2022/01/19 07:09:22;;;;;;;71.03;35.88;;;4.50;99.90;;;;;;5034967;28;20124;-70
2022/01/19 07:11:49;;;;;;;75.88;37.17;;;4.50;99.90;;;;;;5034875;28;20060;-70
2022/01/19 07:14:17;;;;;;;63.45;34.78;;;4.50;99.90;;;;;;5017302;28;20041;-70
2022/01/19 07:16:43;;;;;;;72.80;34.42;;;4.50;99.90;;;;;;5017447;28;20061;-69
2022/01/19 07:19:10;;;;;;;72.57;34.95;;;4.50;99.90;;;;;;5034062;28;20128;-69
2022/01/19 07:21:35;;;;;;;70.03;37.15;;;4.50;99.90;;;;;;5040062;28;20061;-70
2022/01/19 07:24:01;;;;;;;67.88;34.05;;;4.50;99.90;;;;;;5054611;28;20048;-69
2022/01/19 07:26:27;;;;;;;76.07;34.65;;;4.50;99.90;;;;;;5048216;28;20052;-72
2022/01/19 07:28:52;;;;;;;81.63;36.05;;;4.50;99.90;;;;;;5054257;28;20087;-72
2022/01/19 07:31:18;;;;;;;73.03;35.72;;;4.50;99.90;;;;;;5054278;28;20342;-71
2022/01/19 07:33:44;;;;;;;72.35;36.20;;;4.50;99.90;;;;;;5054179;28;20037;-71
2022/01/19 07:36:12;;;;;;;72.95;35.72;;;4.50;99.90;;;;;;5053975;28;20053;-69
2022/01/19 07:38:38;;;;;;;75.38;34.78;;;4.50;99.90;;;;;;5036382;28;20064;-70
2022/01/19 07:41:03;;;;;;;77.15;36.40;;;4.50;99.90;;;;;;5041988;28;20162;-69
2022/01/19 07:43:29;;;;;;;81.63;35.67;;;4.50;99.90;;;;;;5048288;28;20120;-70
2022/01/19 07:45:54;;;;;;;72.82;34.97;;;4.50;99.90;;;;;;5036501;28;20454;-70
2022/01/19 07:48:20;;;;;;;71.50;35.45;;;4.50;99.90;;;;;;5051990;28;20441;-70
2022/01/19 07:50:46;;;;;;;79.40;35.85;;;4.50;99.90;;;;;;5054154;28;20481;-69
2022/01/19 07:53:11;;;;;;;81.03;37.20;;;4.50;99.90;;;;;;5050231;28;20052;-70
2022/01/19 07:55:37;;;;;;;71.38;36.20;;;4.50;99.90;;;;;;5049327;28;20520;-70
2022/01/19 07:58:03;;;;;;;77.63;35.58;;;4.50;99.90;;;;;;5031166;28;20041;-70
2022/01/19 08:00:29;;;;;;;71.13;35.28;;;4.50;99.90;;;;;;5020700;28;20245;-70
2022/01/19 08:02:55;;;;;;;67.45;34.35;;;4.50;99.90;;;;;;5020394;28;20056;-72
2022/01/19 08:05:21;;;;;;;72.80;34.38;;;4.50;99.90;;;;;;5023810;28;20042;-69
2022/01/19 08:07:46;;;;;;;75.30;36.28;;;4.50;99.90;;;;;;5021846;28;20052;-71
2022/01/19 08:10:13;;;;;;;76.28;35.83;;;4.50;99.90;;;;;;5037995;28;20049;-71
2022/01/19 08:12:39;;;;;;;72.15;35.35;;;4.50;99.90;;;;;;5040477;28;20059;-70
2022/01/19 08:15:06;;;;;;;74.63;34.67;;;4.50;99.90;;;;;;5026421;28;20050;-70
2022/01/19 08:17:32;;;;;;;72.82;35.35;;;4.50;99.90;;;;;;5037000;28;20569;-71
2022/01/19 08:19:58;;;;;;;77.43;35.78;;;4.50;99.90;;;;;;5037658;28;20544;-72
2022/01/19 08:22:24;;;;;;;73.40;34.28;;;4.50;99.90;;;;;;5024685;28;20053;-72
2022/01/19 08:24:50;;;;;;;80.32;36.30;;;4.50;99.90;;;;;;5040180;28;20059;-71
2022/01/19 08:27:16;;;;;;;64.10;34.28;;;4.50;99.90;;;;;;5043682;28;20045;-71
2022/01/19 08:29:42;;;;;;;77.45;34.22;;;4.50;99.90;;;;;;5036475;28;20045;-70
2022/01/19 08:32:08;;;;;;;69.20;33.45;;;4.50;99.90;;;;;;5037141;28;20055;-70
2022/01/19 08:34:34;;;;;;;70.40;33.72;;;4.50;99.90;;;;;;5035736;28;20038;-71
2022/01/19 08:37:00;;;;;;;70.18;34.45;;;4.50;99.90;;;;;;5047195;28;20045;-71
2022/01/19 08:39:27;;;;;;;64.95;34.33;;;4.50;99.90;;;;;;5056865;28;20472;-70
2022/01/19 08:41:53;;;;;;;67.97;32.97;;;4.50;99.90;;;;;;5056883;28;20051;-70
2022/01/19 08:44:20;;;;;;;68.75;34.00;;;4.50;99.90;;;;;;5039662;28;20071;-71
2022/01/19 08:46:45;;;;;;;68.45;34.72;;;4.50;99.90;;;;;;5039425;28;20069;-70
2022/01/19 08:49:12;;;;;;;66.75;33.83;;;4.50;99.90;;;;;;5056710;28;20045;-72
2022/01/19 08:51:38;;;;;;;66.40;33.67;;;4.50;99.90;;;;;;5052331;28;20396;-70
2022/01/19 08:54:04;;;;;;;75.47;33.92;;;4.50;99.90;;;;;;5052446;28;20045;-70
2022/01/19 08:56:30;;;;;;;75.47;32.65;;;4.40;99.90;;;;;;5046574;28;20361;-71
2022/01/19 08:58:55;;;;;;;62.50;34.75;;;4.50;99.90;;;;;;5039329;28;20044;-67
2022/01/19 09:01:22;;;;;;;71.55;33.92;;;4.50;99.90;;;;;;5034012;28;20343;-71
2022/01/19 09:03:48;;;;;;;77.72;34.85;;;4.50;99.90;;;;;;5018959;28;20045;-70
2022/01/19 09:06:13;;;;;;;63.80;33.63;;;4.50;99.90;;;;;;5027974;28;20159;-71
2022/01/19 09:08:39;;;;;;;70.55;34.33;;;4.50;99.90;;;;;;5028123;28;20060;-69
2022/01/19 09:11:06;;;;;;;73.43;34.58;;;4.60;99.90;;;;;;5056583;28;20049;-72
2022/01/19 09:13:32;;;;;;;69.00;34.47;;;4.60;99.90;;;;;;5031502;28;20063;-73
2022/01/19 09:15:58;;;;;;;66.35;35.15;;;4.60;99.90;;;;;;5035907;28;20465;-70
2022/01/19 09:18:24;;;;;;;70.45;34.47;;;4.70;99.90;;;;;;5052185;28;20128;-72
2022/01/19 09:20:49;;;;;;;65.20;34.10;;;4.70;99.90;;;;;;5037031;28;20044;-70
2022/01/19 09:23:15;;;;;;;66.05;33.88;;;4.80;99.90;;;;;;5018750;28;20440;-70
2022/01/19 09:25:41;;;;;;;69.57;33.60;;;4.80;99.90;;;;;;5036619;28;20408;-69
2022/01/19 09:28:08;;;;;;;66.80;35.47;;;4.80;99.90;;;;;;5018814;28;20059;-71
2022/01/19 09:30:34;;;;;;;66.63;33.40;;;4.80;99.90;;;;;;5018877;28;20107;-70
2022/01/19 09:33:10;;;;;;;68.22;33.13;;;4.80;99.90;;;;;;5019590;28;20143;-71
2022/01/19 09:36:06;;;;;;;60.58;33.83;;;4.80;99.90;;;;;;5018923;28;20053;-71
2022/01/19 09:38:36;;;;;;;66.88;34.22;;;4.90;99.90;;;;;;5018750;28;20052;-69
2022/01/19 09:41:06;;;;;;;59.15;32.42;;;4.90;99.90;;;;;;5018860;28;20057;-70
2022/01/19 09:43:32;;;;;;;63.22;33.80;;;4.90;99.90;;;;;;5018560;28;20085;-70
2022/01/19 09:45:59;;;;;;;59.20;34.33;;;4.90;99.90;;;;;;5018806;28;20094;-70
2022/01/19 09:48:26;;;;;;;61.80;32.35;;;5.00;99.90;;;;;;5036413;28;20046;-69
2022/01/19 09:50:54;;;;;;;62.35;32.85;;;5.00;99.90;;;;;;5045235;28;20052;-68
2022/01/19 09:53:20;;;;;;;59.47;31.83;;;5.00;99.90;;;;;;5052551;28;20409;-69
2022/01/19 09:55:47;;;;;;;66.05;33.33;;;5.10;99.90;;;;;;5018176;28;20045;-68
2022/01/19 09:58:13;;;;;;;69.10;33.88;;;5.10;99.90;;;;;;5035778;28;20046;-70
2022/01/19 10:00:39;;;;;;;60.08;32.85;;;5.10;99.90;;;;;;5018623;28;20057;-69
2022/01/19 10:03:19;;;;;;;67.63;33.78;;;5.10;99.90;;;;;;5035604;28;20373;-70
2022/01/19 10:06:03;;;;;;;61.00;33.03;;;5.20;99.90;;;;;;5018325;28;20064;-71
2022/01/19 10:08:49;;;;;;;55.28;32.88;;;5.30;99.90;;;;;;5035574;28;20144;-68
2022/01/19 10:11:21;;;;;;;60.10;33.67;;;5.30;99.90;;;;;;5035592;28;20046;-72
2022/01/19 10:16:59;;;;;;;56.25;31.52;;;5.40;99.90;;;;;;5035280;28;20485;-69
2022/01/19 10:19:34;;;;;;;59.22;33.50;;;5.40;99.90;;;;;;5018521;28;20045;-69
2022/01/19 10:22:09;;;;;;;60.30;31.88;;;5.30;99.90;;;;;;5035355;28;20111;-70
2022/01/19 10:24:51;;;;;;;59.05;33.47;;;5.30;99.90;;;;;;5052555;28;20040;-71
2022/01/19 10:27:35;;;;;;;59.67;32.38;;;5.30;99.90;;;;;;5055505;28;20041;-71
2022/01/19 10:30:04;;;;;;;56.17;31.95;;;5.30;99.90;;;;;;5037972;28;20059;-69
2022/01/19 10:32:30;;;;;;;56.95;33.72;;;5.30;99.90;;;;;;5055273;28;20182;-69
2022/01/19 10:34:56;;;;;;;63.75;33.00;;;5.30;99.90;;;;;;5037379;28;20512;-69
2022/01/19 10:37:27;;;;;;;56.20;33.33;;;5.40;99.90;;;;;;5055275;28;20353;-71
2022/01/19 10:39:57;;;;;;;57.58;32.67;;;5.20;99.90;;;;;;5038221;28;20049;-69
2022/01/19 10:42:25;;;;;;;55.67;33.30;;;5.30;99.90;;;;;;5055236;28;20055;-70
2022/01/19 10:44:54;;;;;;;60.90;32.33;;;5.30;99.90;;;;;;5020659;28;20131;-70
2022/01/19 10:47:42;;;;;;;60.85;33.65;;;5.30;99.90;;;;;;5037511;28;20059;-70
2022/01/19 10:50:10;;;;;;;59.13;33.85;;;5.30;99.90;;;;;;5054431;28;20056;-69
2022/01/19 10:52:40;;;;;;;68.00;34.97;;;5.30;99.90;;;;;;5054745;28;20414;-70
2022/01/19 10:55:20;;;;;;;61.67;34.78;;;5.20;99.90;;;;;;5037361;28;20049;-69
2022/01/19 10:57:47;;;;;;;62.58;37.10;;;5.30;99.90;;;;;;5037036;28;20075;-68
2022/01/19 11:00:34;;;;;;;64.95;35.22;;;5.40;99.90;;;;;;5054938;28;20404;-71
2022/01/19 11:03:19;;;;;;;60.50;36.63;;;5.20;99.90;;;;;;5036802;28;20048;-69
2022/01/19 11:05:47;;;;;;;59.40;35.90;;;5.20;99.90;;;;;;5054554;28;20051;-70
2022/01/19 11:08:14;;;;;;;58.85;36.22;;;5.20;99.90;;;;;;5054948;28;20362;-68
2022/01/19 11:10:39;;;;;;;60.25;35.45;;;5.20;99.90;;;;;;5054892;28;20115;-70
2022/01/19 11:13:13;;;;;;;63.03;34.95;;;5.20;99.90;;;;;;5055318;28;20176;-68
2022/01/19 11:15:39;;;;;;;61.65;35.00;;;5.20;99.90;;;;;;5037444;28;20057;-69
2022/01/19 11:18:04;;;;;;;70.05;37.35;;;5.20;99.90;;;;;;5054645;28;20053;-71
2022/01/19 11:20:39;;;;;;;66.72;38.30;;;5.20;99.90;;;;;;5025914;28;20049;-70
2022/01/19 11:23:04;;;;;;;60.88;37.67;;;5.20;99.90;;;;;;5017160;28;20074;-72
2022/01/19 11:25:36;;;;;;;67.00;39.65;;;5.20;99.90;;;;;;5017492;28;20076;-69
2022/01/19 11:28:02;;;;;;;63.42;37.83;;;5.20;99.90;;;;;;5021849;28;20127;-72
2022/01/19 11:30:31;;;;;;;69.35;39.65;;;5.30;99.90;;;;;;5022785;28;20049;-70
2022/01/19 11:33:12;;;;;;;73.75;38.90;;;5.30;99.90;;;;;;5038483;28;20362;-68
2022/01/19 11:35:39;;;;;;;67.55;37.42;;;5.40;99.90;;;;;;5021249;28;20046;-69
2022/01/19 11:38:31;;;;;;;75.45;40.75;;;5.40;99.90;;;;;;5020757;28;20045;-68
2022/01/19 11:40:58;;;;;;;62.55;39.50;;;5.30;99.90;;;;;;5021646;28;20053;-70
2022/01/19 11:43:28;;;;;;;62.50;38.35;;;5.40;99.90;;;;;;5021127;28;20138;-69
2022/01/19 11:45:56;;;;;;;65.90;39.40;;;5.40;99.90;;;;;;5038511;28;20046;-71
2022/01/19 11:48:28;;;;;;;71.50;41.88;;;5.40;99.90;;;;;;5020864;28;20129;-69
2022/01/19 11:51:05;;;;;;;72.70;41.55;;;5.40;99.90;;;;;;5021526;28;20050;-70
2022/01/19 11:54:10;;;;;;;75.45;42.72;;;5.40;99.90;;;;;;5020830;28;20060;-70
2022/01/19 11:56:58;;;;;;;79.88;42.67;;;5.50;99.90;;;;;;5038382;28;20107;-70
2022/01/19 11:59:25;;;;;;;76.55;42.00;;;5.50;99.90;;;;;;5037934;28;20049;-70
2022/01/19 12:01:51;;;;;;;79.15;42.83;;;5.50;99.90;;;;;;5035065;28;20469;-69
2022/01/19 12:04:19;;;;;;;76.95;41.13;;;5.50;99.90;;;;;;5039662;28;20049;-71
2022/01/19 12:06:47;;;;;;;80.78;42.47;;;5.50;99.90;;;;;;5058106;28;20369;-71
2022/01/19 12:09:13;;;;;;;78.72;41.58;;;5.70;99.90;;;;;;5057947;28;20040;-68
2022/01/19 12:11:50;;;;;;;76.30;42.17;;;5.70;99.90;;;;;;5040043;28;20049;-68
2022/01/19 12:14:18;;;;;;;85.40;43.38;;;5.70;99.90;;;;;;5040256;28;20052;-71
2022/01/19 12:16:55;;;;;;;79.15;41.42;;;5.80;99.90;;;;;;5040287;28;20045;-68
2022/01/19 12:19:23;;;;;;;75.82;41.88;;;5.80;99.90;;;;;;5054575;28;20052;-69
2022/01/19 12:21:55;;;;;;;75.55;40.40;;;5.80;99.90;;;;;;5020325;28;20362;-70
2022/01/19 12:24:32;;;;;;;78.40;41.28;;;5.90;99.90;;;;;;5020028;28;20051;-70
2022/01/19 12:27:09;;;;;;;80.13;41.30;;;5.80;99.90;;;;;;5037552;28;20045;-71
2022/01/19 12:29:38;;;;;;;81.10;39.30;;;5.80;99.90;;;;;;5020393;28;20187;-70
2022/01/19 12:32:12;;;;;;;79.32;41.30;;;5.80;99.90;;;;;;5019866;28;20128;-70
2022/01/19 12:35:07;;;;;;;80.30;40.50;;;5.80;99.90;;;;;;5019722;28;20540;-69
2022/01/19 12:37:35;;;;;;;83.22;41.47;;;5.80;99.90;;;;;;5019061;28;20049;-69
2022/01/19 12:40:24;;;;;;;82.80;41.10;;;5.80;99.90;;;;;;5051417;28;20049;-71
2022/01/19 12:42:56;;;;;;;76.05;40.30;;;5.90;99.90;;;;;;5039673;28;20080;-69
2022/01/19 12:45:47;;;;;;;76.60;40.00;;;5.80;99.90;;;;;;5039761;28;20052;-70
2022/01/19 12:48:14;;;;;;;84.50;41.58;;;5.80;99.90;;;;;;5039287;28;20040;-72
2022/01/19 12:50:45;;;;;;;82.75;41.33;;;5.80;99.90;;;;;;5056905;28;20088;-69
2022/01/19 12:53:24;;;;;;;76.88;38.33;;;5.80;99.90;;;;;;5056871;28;20057;-69
2022/01/19 12:55:56;;;;;;;76.40;40.45;;;5.90;99.90;;;;;;5057352;28;20041;-69
2022/01/19 12:58:25;;;;;;;78.65;40.33;;;5.80;99.90;;;;;;5039570;28;20056;-69
2022/01/19 13:00:54;;;;;;;76.85;39.88;;;5.80;99.90;;;;;;5056768;28;20109;-69
2022/01/19 13:03:21;;;;;;;75.65;39.53;;;5.80;99.90;;;;;;5056823;28;20052;-71
2022/01/19 13:05:58;;;;;;;65.60;36.50;;;5.80;99.90;;;;;;5039490;28;20057;-69
2022/01/19 13:09:07;;;;;;;65.22;37.30;;;5.80;99.90;;;;;;5056307;28;20106;-71
2022/01/19 13:11:40;;;;;;;69.78;35.55;;;5.90;99.90;;;;;;5036577;28;20053;-71
2022/01/19 13:14:09;;;;;;;62.58;36.00;;;6.00;99.90;;;;;;5018917;28;20061;-70
2022/01/19 13:16:44;;;;;;;62.85;36.08;;;6.10;99.90;;;;;;5019402;28;20104;-69
2022/01/19 13:19:18;;;;;;;73.57;35.72;;;6.20;99.90;;;;;;5018801;28;20425;-70
2022/01/19 13:21:47;;;;;;;71.55;37.83;;;6.20;99.90;;;;;;5036471;28;20053;-70
2022/01/19 13:24:25;;;;;;;77.75;37.17;;;6.30;99.90;;;;;;5018606;28;20049;-71
2022/01/19 13:26:54;;;;;;;73.40;35.15;;;6.20;99.90;;;;;;5018957;28;20053;-70
2022/01/19 13:29:39;;;;;;;68.45;35.95;;;6.40;99.90;;;;;;5036229;28;20081;-68
2022/01/19 13:32:12;;;;;;;62.45;36.28;;;6.20;99.90;;;;;;5036783;28;20076;-70
2022/01/19 13:34:54;;;;;;;72.05;36.97;;;6.20;99.90;;;;;;5036064;28;20497;-69
2022/01/19 13:37:22;;;;;;;65.85;36.75;;;6.20;99.90;;;;;;5019008;28;20064;-68
2022/01/19 13:39:57;;;;;;;74.47;37.15;;;6.10;99.90;;;;;;5033078;28;20133;-69
2022/01/19 13:42:41;;;;;;;65.97;34.75;;;6.20;99.90;;;;;;5056017;28;20041;-71
2022/01/19 13:45:30;;;;;;;64.03;35.42;;;6.10;99.90;;;;;;5056167;28;20346;-68
2022/01/19 13:48:21;;;;;;;64.90;34.08;;;6.10;99.90;;;;;;5021856;28;20114;-69
2022/01/19 13:50:53;;;;;;;66.80;34.95;;;6.10;99.90;;;;;;5055841;28;20037;-68
2022/01/19 13:53:32;;;;;;;68.28;34.67;;;6.10;99.90;;;;;;5038506;28;20115;-69